Time;durP1;ratioP1;P1;durP2;ratioP2;P2;SDS_P1;SDS_P2;PMS_P1;PMS_P2;Temp;Humidity;BMP_temperature;BMP_pressure;BME280_temperature;BME280_humidity;BME280_pressure;Samples;Min_cycle;Max_cycle;Signal;HPM_P1;HPM_P2
2021/01/08 00:00:25;;;;;;;;;;;;;;;0.52;81.85;99896.59;120346;1148;23230;-64
2021/01/08 00:03:05;;;;;;;22.00;5.57;;;;;;;0.51;81.74;99892.31;120360;1148;21561;-61
2021/01/08 00:05:35;;;;;;;20.87;5.77;;;;;;;0.50;82.23;99894.28;120473;1147;22916;-62
2021/01/08 00:08:06;;;;;;;23.27;6.97;;;;;;;0.51;81.72;99897.81;120323;1148;26363;-62
2021/01/08 00:10:36;;;;;;;19.57;6.23;;;;;;;0.51;81.97;99892.31;120256;1147;27460;-62
2021/01/08 00:13:06;;;;;;;22.37;6.78;;;;;;;0.51;81.75;99889.57;120114;1148;24531;-62
2021/01/08 00:15:36;;;;;;;19.25;5.55;;;;;;;0.51;81.80;99898.59;120230;1148;24934;-63
2021/01/08 00:18:07;;;;;;;20.50;5.70;;;;;;;0.51;82.23;99892.31;120199;1147;22931;-61
2021/01/08 00:20:37;;;;;;;20.10;5.50;;;;;;;0.50;81.51;99897.02;120503;1147;22935;-63
2021/01/08 00:23:07;;;;;;;20.35;6.47;;;;;;;0.51;81.97;99900.56;120526;1147;22916;-61
2021/01/08 00:25:37;;;;;;;18.55;5.35;;;;;;;0.51;82.37;99895.84;120325;1148;26053;-62
2021/01/08 00:28:09;;;;;;;20.32;6.05;;;;;;;0.51;82.06;99890.35;120331;1147;23028;-63
2021/01/08 00:30:39;;;;;;;21.67;5.87;;;;;;;0.51;81.66;99898.59;120519;1147;24791;-62
2021/01/08 00:33:09;;;;;;;26.75;7.33;;;;;;;0.52;82.50;99888.36;120340;1148;26072;-63
2021/01/08 00:35:41;;;;;;;21.60;7.20;;;;;;;0.53;82.16;99890.70;120357;1147;23046;-62
2021/01/08 00:38:12;;;;;;;22.90;7.65;;;;;;;0.55;82.58;99888.31;120307;1148;23074;-62
2021/01/08 00:40:41;;;;;;;;;;;;;;;0.55;82.68;99890.28;120461;1147;23371;-61
2021/01/08 00:43:11;;;;;;;18.07;5.93;;;;;;;0.54;82.27;99892.24;120299;1148;21638;-62
2021/01/08 00:45:41;;;;;;;24.27;8.90;;;;;;;0.52;82.25;99883.65;120321;1147;22883;-63
2021/01/08 00:48:12;;;;;;;20.25;6.58;;;;;;;0.51;82.03;99879.37;120403;1148;22920;-62
2021/01/08 00:50:42;;;;;;;25.10;7.87;;;;;;;0.51;82.09;99887.61;120410;1147;26094;-63
2021/01/08 00:53:11;;;;;;;24.92;8.13;;;;;;;0.52;82.47;99888.36;120334;1148;22939;-61
2021/01/08 00:55:41;;;;;;;26.15;10.08;;;;;;;0.53;82.03;99885.22;120314;1147;23074;-61
2021/01/08 00:58:12;;;;;;;42.83;21.73;;;;;;;0.52;82.24;99885.61;120418;1147;22927;-61
2021/01/08 01:00:42;;;;;;;42.50;19.00;;;;;;;0.52;82.03;99880.91;120292;1147;27254;-61
2021/01/08 01:03:11;;;;;;;;;;;;;;;0.52;82.72;99889.14;120559;1146;22923;-62
2021/01/08 01:05:44;;;;;;;28.93;10.93;;;;;;;0.50;82.64;99896.24;120356;1148;21570;-62
2021/01/08 01:08:14;;;;;;;28.10;10.65;;;;;;;0.50;82.05;99894.28;120385;1148;22938;-62
2021/01/08 01:10:43;;;;;;;;;;;;;;;0.50;82.46;99896.24;120355;1147;26803;-63
2021/01/08 01:13:13;;;;;;;27.20;9.83;;;;;;;0.49;82.84;99900.20;120306;1148;21560;-63
2021/01/08 01:15:44;;;;;;;29.07;10.23;;;;;;;0.49;82.07;99900.20;120313;1148;25582;-63
2021/01/08 01:18:14;;;;;;;28.70;9.70;;;;;;;0.49;82.79;99895.48;120375;1148;24548;-63
2021/01/08 01:20:44;;;;;;;29.80;10.47;;;;;;;0.49;82.57;99898.23;120417;1147;22948;-61
2021/01/08 01:23:15;;;;;;;27.70;9.78;;;;;;;0.51;83.05;99903.30;120322;1147;26640;-62
2021/01/08 01:25:45;;;;;;;;;;;;;;;0.50;82.92;99891.53;120449;1148;23032;-61
2021/01/08 01:28:15;;;;;;;24.05;8.20;;;;;;;0.50;82.47;99898.98;120364;1147;21616;-62
2021/01/08 01:30:45;;;;;;;24.35;8.18;;;;;;;0.49;82.08;99886.47;120393;1148;27335;-61
2021/01/08 01:33:15;;;;;;;20.88;6.75;;;;;;;0.49;82.80;99890.00;120501;1147;22910;-61
2021/01/08 01:35:45;;;;;;;30.53;9.03;;;;;;;0.51;82.41;99892.31;120512;1147;22955;-61
2021/01/08 01:38:16;;;;;;;24.57;8.38;;;;;;;0.50;82.54;99885.26;120593;1147;27378;-62
2021/01/08 01:40:46;;;;;;;26.40;8.35;;;;;;;0.51;82.18;99889.57;120309;1147;24557;-62
2021/01/08 01:43:17;;;;;;;29.00;10.10;;;;;;;0.51;82.15;99884.86;120271;1148;23072;-61
2021/01/08 01:45:47;;;;;;;29.33;10.50;;;;;;;0.52;82.22;99893.85;120297;1147;27226;-62
2021/01/08 01:48:17;;;;;;;29.72;10.18;;;;;;;0.51;82.77;99890.35;120304;1148;22971;-61
2021/01/08 01:50:48;;;;;;;33.30;12.03;;;;;;;0.50;82.46;99888.79;120353;1148;22905;-62
2021/01/08 01:53:17;;;;;;;;;;;;;;;0.50;82.69;99893.50;120320;1148;22952;-61
2021/01/08 01:55:48;;;;;;;47.43;20.10;;;;;;;0.47;82.75;99883.37;120337;1147;21576;-62
2021/01/08 01:58:19;;;;;;;74.17;31.57;;;;;;;0.47;82.70;99889.64;120350;1147;22933;-62
2021/01/08 02:00:50;;;;;;;69.20;28.10;;;;;;;0.48;82.73;99885.69;120377;1148;22942;-62
2021/01/08 02:03:25;;;;;;;42.03;17.67;;;;;;;0.47;82.92;99886.89;120537;1147;22952;-62
2021/01/08 02:06:00;;;;;;;34.27;12.67;;;;;;;0.46;82.97;99888.08;120433;1147;23084;-62
2021/01/08 02:08:30;;;;;;;33.13;11.50;;;;;;;0.44;82.31;99887.72;120287;1148;22947;-62
2021/01/08 02:11:05;;;;;;;35.38;11.73;;;;;;;0.43;82.12;99891.67;120281;1147;22934;-61
2021/01/08 02:13:42;;;;;;;34.25;12.05;;;;;;;0.43;82.25;99890.89;120423;1147;26782;-61
2021/01/08 02:16:15;;;;;;;35.55;12.35;;;;;;;0.44;82.46;99890.47;120309;1148;23084;-60
2021/01/08 02:18:48;;;;;;;34.97;11.80;;;;;;;0.45;82.85;99888.50;120273;1148;22931;-60
2021/01/08 02:21:23;;;;;;;31.55;10.95;;;;;;;0.45;82.67;99889.28;120260;1148;22974;-63
2021/01/08 02:24:02;;;;;;;32.70;11.60;;;;;;;0.46;82.82;99885.33;120267;1148;26427;-61
2021/01/08 02:26:34;;;;;;;33.75;11.50;;;;;;;0.47;82.79;99883.37;120254;1148;23005;-63
2021/01/08 02:29:04;;;;;;;30.77;10.50;;;;;;;0.47;82.75;99886.11;120249;1148;26347;-62
2021/01/08 02:31:35;;;;;;;31.25;11.03;;;;;;;0.47;82.44;99884.15;120206;1148;22906;-61
2021/01/08 02:34:06;;;;;;;32.83;10.57;;;;;;;0.48;82.08;99888.43;120330;1147;22917;-61
2021/01/08 02:36:40;;;;;;;30.03;11.57;;;;;;;0.49;82.68;99887.25;120415;1147;25963;-61
2021/01/08 02:39:12;;;;;;;34.17;12.63;;;;;;;0.49;82.46;99884.50;120410;1148;22965;-61
2021/01/08 02:41:45;;;;;;;31.50;11.30;;;;;;;0.49;82.28;99880.98;120342;1147;24744;-61
2021/01/08 02:44:17;;;;;;;33.83;11.60;;;;;;;0.49;82.54;99883.72;120339;1148;22932;-61
2021/01/08 02:46:48;;;;;;;31.97;12.30;;;;;;;0.51;83.08;99884.08;120363;1147;22945;-62
2021/01/08 02:49:18;;;;;;;38.27;13.47;;;;;;;0.54;82.94;99874.98;120160;1148;22912;-60
2021/01/08 02:51:49;;;;;;;32.17;11.83;;;;;;;0.54;83.07;99881.26;120492;1148;24522;-60
2021/01/08 02:54:19;;;;;;;32.97;11.30;;;;;;;0.57;82.41;99883.17;120300;1148;23086;-61
2021/01/08 02:56:54;;;;;;;30.37;10.68;;;;;;;0.59;82.37;99882.75;120387;1147;22942;-62
2021/01/08 02:59:25;;;;;;;32.03;11.13;;;;;;;0.59;82.80;99885.50;120153;1148;27918;-61
2021/01/08 03:01:56;;;;;;;33.15;12.15;;;;;;;0.57;83.01;99869.45;120145;1147;22951;-62
2021/01/08 03:04:27;;;;;;;33.23;12.10;;;;;;;0.54;82.58;99867.53;120259;1148;22936;-62
2021/01/08 03:06:58;;;;;;;32.10;11.33;;;;;;;0.51;82.58;99876.63;120369;1147;22923;-60
2021/01/08 03:09:29;;;;;;;31.80;11.10;;;;;;;0.52;82.46;99871.87;120414;1147;23035;-62
2021/01/08 03:11:58;;;;;;;;;;;;;;;0.52;82.54;99863.64;120076;1147;27253;-60
2021/01/08 03:14:29;;;;;;;35.73;11.57;;;;;;;0.50;82.14;99866.03;120548;1147;21618;-60
2021/01/08 03:17:00;;;;;;;29.30;10.47;;;;;;;0.49;82.24;99868.03;120182;1147;22919;-60
2021/01/08 03:19:30;;;;;;;38.80;12.37;;;;;;;0.48;82.90;99871.95;120176;1148;26792;-61
2021/01/08 03:22:00;;;;;;;35.48;12.28;;;;;;;0.47;82.83;99873.16;120204;1148;25447;-63
2021/01/08 03:24:30;;;;;;;33.83;12.37;;;;;;;0.49;83.26;99872.73;120215;1148;22916;-62
2021/01/08 03:27:00;;;;;;;35.45;13.05;;;;;;;0.49;82.53;99875.48;120252;1148;25966;-61
2021/01/08 03:29:30;;;;;;;40.67;12.23;;;;;;;0.50;83.00;99869.56;120239;1148;22945;-61
2021/01/08 03:32:00;;;;;;;37.17;13.10;;;;;;;0.48;82.98;99871.95;120288;1148;24547;-62
2021/01/08 03:34:31;;;;;;;36.93;12.80;;;;;;;0.46;82.38;99866.11;120281;1148;23074;-61
2021/01/08 03:37:01;;;;;;;32.78;11.55;;;;;;;0.46;83.10;99868.85;120300;1147;22916;-61
2021/01/08 03:39:32;;;;;;;32.93;12.37;;;;;;;0.47;83.22;99867.67;120449;1148;22916;-60
2021/01/08 03:42:02;;;;;;;33.70;13.00;;;;;;;0.47;82.83;99861.39;120253;1147;22945;-60
2021/01/08 03:44:33;;;;;;;39.10;14.28;;;;;;;0.45;82.38;99867.31;120375;1146;23042;-63
2021/01/08 03:47:02;;;;;;;;;;;;;;;0.46;82.71;99868.07;120233;1148;25967;-61
2021/01/08 03:49:38;;;;;;;31.57;11.80;;;;;;;0.45;83.16;99859.08;120249;1148;21566;-62
2021/01/08 03:52:11;;;;;;;32.23;12.40;;;;;;;0.45;82.90;99856.33;120216;1148;22929;-62
2021/01/08 03:54:42;;;;;;;38.00;11.90;;;;;;;0.46;83.36;99857.87;120358;1147;22923;-61
2021/01/08 03:57:14;;;;;;;32.73;12.97;;;;;;;0.46;83.24;99857.87;120277;1147;22919;-61
2021/01/08 03:59:45;;;;;;;40.07;13.90;;;;;;;0.45;82.78;99858.30;120249;1147;22920;-61
2021/01/08 04:02:15;;;;;;;34.85;13.10;;;;;;;0.45;82.59;99861.05;120349;1147;22923;-61
2021/01/08 04:04:45;;;;;;;32.00;12.50;;;;;;;0.45;82.76;99855.55;120287;1148;22942;-62
2021/01/08 04:07:16;;;;;;;36.03;12.63;;;;;;;0.44;82.68;99853.98;120196;1147;22910;-61
2021/01/08 04:09:46;;;;;;;33.00;11.50;;;;;;;0.44;82.91;99857.52;120235;1148;22942;-61
2021/01/08 04:12:16;;;;;;;35.78;11.78;;;;;;;0.43;83.34;99855.20;120361;1147;22880;-61
2021/01/08 04:14:46;;;;;;;37.53;13.25;;;;;;;0.42;82.50;99859.13;120385;1148;23022;-62
2021/01/08 04:17:16;;;;;;;37.07;13.23;;;;;;;0.41;82.92;99865.83;120204;1147;22945;-61
2021/01/08 04:19:46;;;;;;;35.23;12.65;;;;;;;0.40;82.96;99867.00;120237;1148;27260;-60
2021/01/08 04:22:17;;;;;;;30.17;11.80;;;;;;;0.39;83.22;99863.50;120210;1147;22922;-62
2021/01/08 04:24:46;;;;;;;32.83;13.00;;;;;;;0.40;83.19;99856.80;120242;1147;26621;-60
2021/01/08 04:27:17;;;;;;;36.65;13.25;;;;;;;0.41;82.80;99860.33;120188;1148;22947;-61
2021/01/08 04:29:47;;;;;;;37.45;14.00;;;;;;;0.36;83.15;99864.33;120234;1148;22926;-60
2021/01/08 04:32:17;;;;;;;34.80;14.10;;;;;;;0.37;83.25;99862.37;120229;1148;22938;-61
2021/01/08 04:34:47;;;;;;;39.65;15.05;;;;;;;0.34;83.39;99861.23;120352;1148;22916;-61
2021/01/08 04:37:17;;;;;;;42.43;13.80;;;;;;;0.32;82.81;99863.62;120215;1148;22935;-61
2021/01/08 04:39:47;;;;;;;39.65;14.83;;;;;;;0.32;82.81;99860.09;120211;1148;22922;-62
2021/01/08 04:42:18;;;;;;;36.05;14.23;;;;;;;0.32;83.39;99857.34;120268;1148;22916;-61
2021/01/08 04:44:47;;;;;;;;;;;;;;;0.31;83.38;99859.30;120221;1148;26390;-60
2021/01/08 04:47:18;;;;;;;37.37;14.50;;;;;;;0.31;83.58;99851.07;120213;1148;21670;-62
2021/01/08 04:49:48;;;;;;;37.13;13.77;;;;;;;0.31;83.50;99856.56;120183;1147;26612;-61
2021/01/08 04:52:20;;;;;;;41.05;15.20;;;;;;;0.31;83.26;99861.30;120248;1147;26399;-62
2021/01/08 04:54:51;;;;;;;34.30;13.27;;;;;;;0.30;82.82;99862.48;120193;1147;27264;-61
2021/01/08 04:57:22;;;;;;;;;;;;;;;0.30;83.31;99866.01;120592;1148;22934;-61
2021/01/08 04:59:53;;;;;;;37.03;13.70;;;;;;;0.29;82.87;99861.70;120241;1148;21705;-62
2021/01/08 05:02:22;;;;;;;;;;;;;;;0.28;83.35;99851.92;120073;1148;27314;-62
2021/01/08 05:04:54;;;;;;;40.03;15.07;;;;;;;0.29;83.41;99856.20;120170;1148;21560;-61
2021/01/08 05:07:26;;;;;;;40.40;15.05;;;;;;;0.29;83.57;99855.45;120292;1147;23562;-62
2021/01/08 05:09:56;;;;;;;43.90;14.90;;;;;;;0.29;82.77;99855.45;120371;1147;22956;-61
2021/01/08 05:12:40;;;;;;;40.83;15.32;;;;;;;0.29;83.01;99853.46;120484;1147;23087;-62
2021/01/08 05:15:13;;;;;;;39.80;14.40;;;;;;;0.31;83.50;99861.30;120277;1147;23383;-62
2021/01/08 05:17:45;;;;;;;38.23;13.63;;;;;;;0.29;83.69;99858.95;120264;1147;25954;-60
2021/01/08 05:20:15;;;;;;;32.67;12.77;;;;;;;0.29;82.81;99856.20;120173;1148;23002;-61
2021/01/08 05:22:46;;;;;;;;;;;;;;;0.27;83.45;99863.33;120324;1148;22951;-61
2021/01/08 05:25:17;;;;;;;36.93;13.77;;;;;;;0.26;83.40;99857.06;120269;1148;21633;-62
2021/01/08 05:27:49;;;;;;;31.20;12.25;;;;;;;0.26;83.62;99854.31;120321;1147;22916;-62
2021/01/08 05:30:23;;;;;;;35.00;13.90;;;;;;;0.25;83.46;99855.49;120246;1148;22915;-61
2021/01/08 05:33:00;;;;;;;38.15;13.80;;;;;;;0.26;83.39;99859.02;120253;1148;22941;-60
2021/01/08 05:35:32;;;;;;;36.43;14.27;;;;;;;0.27;83.73;99857.84;120268;1148;22912;-61
2021/01/08 05:38:06;;;;;;;42.60;15.25;;;;;;;0.26;83.57;99854.31;120294;1148;24601;-60
2021/01/08 05:40:40;;;;;;;39.63;14.73;;;;;;;0.26;83.13;99854.31;120430;1147;22926;-61
2021/01/08 05:43:11;;;;;;;39.87;14.50;;;;;;;0.26;82.96;99856.27;120276;1147;26687;-62
2021/01/08 05:45:41;;;;;;;38.50;14.47;;;;;;;0.28;83.04;99857.41;120239;1148;22924;-62
2021/01/08 05:48:13;;;;;;;40.03;16.07;;;;;;;0.30;83.72;99860.52;120287;1148;22908;-61
2021/01/08 05:50:47;;;;;;;41.07;15.70;;;;;;;0.32;83.11;99857.34;120224;1147;23011;-62
2021/01/08 05:53:21;;;;;;;37.67;14.57;;;;;;;0.32;83.50;99854.59;120258;1147;22910;-61
2021/01/08 05:55:52;;;;;;;38.70;14.75;;;;;;;0.30;83.65;99852.28;120344;1147;22976;-62
2021/01/08 05:58:22;;;;;;;37.87;14.20;;;;;;;0.30;83.51;99855.02;120356;1147;27720;-61
2021/01/08 06:00:57;;;;;;;40.47;15.20;;;;;;;0.30;83.79;99854.24;120117;1148;22996;-61
2021/01/08 06:03:28;;;;;;;35.40;14.80;;;;;;;0.31;83.47;99856.56;120365;1148;24596;-61
2021/01/08 06:05:59;;;;;;;38.27;15.47;;;;;;;0.33;83.79;99850.67;120268;1148;26095;-63
2021/01/08 06:08:32;;;;;;;43.20;16.93;;;;;;;0.36;84.05;99853.34;120507;1147;23005;-64
2021/01/08 06:11:02;;;;;;;37.93;15.73;;;;;;;0.39;83.67;99862.72;120328;1148;23087;-63
2021/01/08 06:13:34;;;;;;;40.65;16.45;;;;;;;0.38;83.61;99856.45;120188;1148;22948;-59
2021/01/08 06:16:06;;;;;;;40.43;15.10;;;;;;;0.39;83.80;99862.72;120268;1147;22977;-60
2021/01/08 06:18:38;;;;;;;39.10;15.00;;;;;;;0.42;83.12;99862.65;120230;1147;22992;-62
2021/01/08 06:21:11;;;;;;;39.90;15.30;;;;;;;0.42;83.78;99862.65;120315;1148;22938;-67
2021/01/08 06:23:42;;;;;;;37.33;15.40;;;;;;;0.42;83.55;99865.39;120245;1148;27688;-63
2021/01/08 06:26:14;;;;;;;36.43;15.57;;;;;;;0.41;83.94;99863.08;120375;1147;25963;-62
2021/01/08 06:28:47;;;;;;;42.40;16.15;;;;;;;0.42;83.80;99861.87;120332;1147;23172;-60
2021/01/08 06:31:26;;;;;;;37.50;15.25;;;;;;;0.44;83.81;99873.20;120260;1147;22934;-59
2021/01/08 06:33:57;;;;;;;38.70;15.80;;;;;;;0.43;83.28;99868.92;120286;1148;24623;-60
2021/01/08 06:36:30;;;;;;;39.90;15.30;;;;;;;0.43;83.61;99868.92;120443;1148;22978;-60
2021/01/08 06:39:03;;;;;;;40.57;15.07;;;;;;;0.40;82.89;99876.02;120356;1147;26637;-60
2021/01/08 06:41:33;;;;;;;40.00;15.73;;;;;;;0.41;83.52;99877.59;120155;1148;22916;-60
2021/01/08 06:44:05;;;;;;;38.25;15.65;;;;;;;0.43;83.09;99877.16;120142;1148;22951;-59
2021/01/08 06:46:37;;;;;;;38.23;15.73;;;;;;;0.47;83.23;99877.88;120034;1147;26369;-61
2021/01/08 06:49:09;;;;;;;39.93;16.70;;;;;;;0.47;83.18;99886.11;120209;1147;23051;-61
2021/01/08 06:51:41;;;;;;;40.30;13.73;;;;;;;0.45;83.24;99880.27;120137;1148;22975;-60
2021/01/08 06:54:13;;;;;;;45.43;16.60;;;;;;;0.41;83.38;99883.08;120173;1148;23006;-61
2021/01/08 06:56:44;;;;;;;39.85;16.05;;;;;;;0.42;83.27;99887.37;120344;1147;24685;-62
2021/01/08 06:59:16;;;;;;;39.17;15.27;;;;;;;0.41;83.38;99894.06;120041;1147;22922;-61
2021/01/08 07:01:56;;;;;;;40.20;15.57;;;;;;;0.40;83.45;99897.99;120419;1147;22889;-61
2021/01/08 07:04:30;;;;;;;39.55;15.53;;;;;;;0.40;83.29;99891.72;120222;1147;22934;-60
2021/01/08 07:07:02;;;;;;;42.60;16.70;;;;;;;0.40;83.54;99895.25;120074;1147;27249;-60
2021/01/08 07:09:34;;;;;;;40.97;15.97;;;;;;;0.39;83.31;99898.42;120280;1147;22919;-59
2021/01/08 07:12:07;;;;;;;38.93;15.03;;;;;;;0.37;82.94;99892.57;120226;1148;26057;-59
2021/01/08 07:14:38;;;;;;;41.80;16.67;;;;;;;0.35;83.28;99895.71;120158;1147;22923;-60
2021/01/08 07:17:12;;;;;;;37.13;15.83;;;;;;;0.34;83.01;99896.92;120673;1147;22941;-59
2021/01/08 07:19:43;;;;;;;36.73;15.80;;;;;;;0.35;83.48;99894.96;120261;1147;23022;-60
2021/01/08 07:22:19;;;;;;;44.27;17.80;;;;;;;0.34;83.16;99902.41;120221;1147;22916;-59
2021/01/08 07:24:50;;;;;;;45.10;16.57;;;;;;;0.35;83.04;99903.20;120322;1147;23007;-59
2021/01/08 07:27:22;;;;;;;44.10;16.80;;;;;;;0.34;82.92;99907.13;120238;1148;22938;-60
2021/01/08 07:29:57;;;;;;;39.87;15.57;;;;;;;0.32;82.81;99904.02;120329;1147;22938;-59
2021/01/08 07:32:36;;;;;;;38.90;14.10;;;;;;;0.33;83.18;99909.08;120254;1147;22911;-59
2021/01/08 07:35:19;;;;;;;41.60;15.30;;;;;;;0.34;83.33;99909.87;120343;1147;22923;-61
2021/01/08 07:38:04;;;;;;;38.37;14.73;;;;;;;0.35;82.81;99912.19;120307;1148;22995;-62
2021/01/08 07:40:36;;;;;;;34.97;12.40;;;;;;;0.37;82.83;99922.77;120576;1147;26021;-62
2021/01/08 07:43:07;;;;;;;40.00;14.95;;;;;;;0.36;82.91;99913.75;120357;1147;22935;-61
2021/01/08 07:45:49;;;;;;;39.30;14.60;;;;;;;0.38;82.42;99916.08;120289;1147;23029;-60
2021/01/08 07:48:24;;;;;;;35.47;13.33;;;;;;;0.40;82.97;99908.98;120327;1147;25963;-61
2021/01/08 07:50:59;;;;;;;36.43;13.20;;;;;;;0.42;82.88;99912.08;120595;1147;22893;-61
2021/01/08 07:53:48;;;;;;;38.30;14.10;;;;;;;0.41;82.24;99910.55;121076;1147;22988;-61
2021/01/08 07:56:22;;;;;;;35.35;13.90;;;;;;;0.45;82.50;99921.45;120448;1147;24723;-63
2021/01/08 07:59:00;;;;;;;34.30;13.20;;;;;;;0.48;82.77;99920.61;120554;1145;22934;-60
2021/01/08 08:01:32;;;;;;;30.63;12.33;;;;;;;0.49;82.56;99924.91;120530;1147;22878;-60
2021/01/08 08:04:04;;;;;;;33.20;13.85;;;;;;;0.51;82.16;99926.05;120085;1147;22972;-61
2021/01/08 08:06:36;;;;;;;31.43;12.13;;;;;;;0.51;82.51;99928.80;121936;1147;26956;-59
2021/01/08 08:09:08;;;;;;;35.20;13.67;;;;;;;0.53;82.20;99923.66;120511;1147;26801;-61
2021/01/08 08:11:38;;;;;;;35.73;13.97;;;;;;;0.56;82.78;99922.06;120852;1147;22933;-61
2021/01/08 08:14:14;;;;;;;39.20;12.70;;;;;;;0.55;81.97;99929.52;120110;1147;22944;-61
2021/01/08 08:16:45;;;;;;;34.30;13.60;;;;;;;0.58;82.03;99923.17;120111;1148;22995;-60
2021/01/08 08:19:16;;;;;;;33.95;12.30;;;;;;;0.61;82.56;99932.55;120396;1148;22935;-60
2021/01/08 08:21:48;;;;;;;28.87;10.13;;;;;;;0.63;82.12;99928.19;120268;1148;22935;-60
2021/01/08 08:24:19;;;;;;;29.93;12.00;;;;;;;0.67;82.42;99928.12;120249;1147;22939;-61
2021/01/08 08:26:50;;;;;;;32.77;12.67;;;;;;;0.71;82.32;99917.84;120281;1148;22934;-60
2021/01/08 08:29:22;;;;;;;27.93;10.00;;;;;;;0.75;82.04;99922.09;120625;1147;22874;-61
2021/01/08 08:31:53;;;;;;;27.70;10.47;;;;;;;0.81;81.77;99922.36;120347;1147;22971;-60
2021/01/08 08:34:31;;;;;;;26.40;10.10;;;;;;;0.83;81.88;99920.75;120186;1148;22975;-59
2021/01/08 08:37:09;;;;;;;29.60;10.75;;;;;;;0.86;81.49;99921.11;120287;1148;23097;-61
2021/01/08 08:39:39;;;;;;;36.37;12.70;;;;;;;0.88;81.84;99926.95;120220;1147;23021;-61
2021/01/08 08:42:18;;;;;;;33.10;11.23;;;;;;;0.91;81.90;99926.13;120242;1148;22944;-61
2021/01/08 08:44:49;;;;;;;32.13;11.20;;;;;;;0.91;81.82;99920.63;120478;1147;22919;-61
2021/01/08 08:47:20;;;;;;;28.07;9.87;;;;;;;0.92;81.88;99933.16;120868;1147;22955;-61
2021/01/08 08:49:50;;;;;;;32.93;12.30;;;;;;;0.93;81.70;99926.48;120374;1147;23058;-61
2021/01/08 08:52:28;;;;;;;31.97;11.53;;;;;;;0.92;81.16;99924.91;120473;1147;26046;-61
2021/01/08 08:54:58;;;;;;;32.73;12.13;;;;;;;0.92;81.63;99924.91;120149;1148;23025;-62
2021/01/08 08:57:29;;;;;;;29.27;11.47;;;;;;;0.92;80.92;99933.95;120220;1147;22918;-59
2021/01/08 08:59:59;;;;;;;33.27;12.33;;;;;;;0.92;80.79;99922.17;120127;1148;22947;-60
2021/01/08 09:02:30;;;;;;;34.48;12.25;;;;;;;0.93;81.05;99927.27;120219;1148;22906;-60
2021/01/08 09:05:11;;;;;;;30.10;11.77;;;;;;;0.93;81.39;99931.98;120255;1147;27233;-62
2021/01/08 09:07:47;;;;;;;26.40;10.80;;;;;;;0.93;81.02;99931.98;120390;1148;22916;-60
2021/01/08 09:10:23;;;;;;;30.37;10.60;;;;;;;0.92;80.87;99933.16;120300;1148;28371;-60
2021/01/08 09:12:57;;;;;;;33.43;12.70;;;;;;;0.93;81.69;99934.73;120320;1148;22920;-60
2021/01/08 09:15:30;;;;;;;33.80;12.80;;;;;;;0.92;81.02;99933.95;120211;1148;23822;-61
2021/01/08 09:18:12;;;;;;;30.47;11.03;;;;;;;0.92;80.95;99933.95;120387;1148;27224;-62
2021/01/08 09:20:59;;;;;;;29.40;10.90;;;;;;;0.94;81.32;99937.05;120222;1148;22910;-60
2021/01/08 09:23:35;;;;;;;32.00;11.00;;;;;;;0.95;80.82;99933.12;120324;1148;23478;-61
2021/01/08 09:26:06;;;;;;;31.40;11.40;;;;;;;0.97;80.65;99938.97;120532;1148;23007;-59
2021/01/08 09:28:45;;;;;;;28.73;10.77;;;;;;;0.98;80.85;99942.47;120577;1148;23040;-61
2021/01/08 09:31:15;;;;;;;26.27;10.00;;;;;;;0.99;80.30;99938.54;120437;1148;23189;-59
2021/01/08 09:33:57;;;;;;;31.02;12.07;;;;;;;1.01;80.64;99936.14;120516;1147;22974;-61
2021/01/08 09:36:32;;;;;;;30.57;10.90;;;;;;;1.03;80.97;99933.75;120492;1147;22952;-61
2021/01/08 09:39:04;;;;;;;29.40;11.70;;;;;;;1.04;80.44;99930.56;120568;1147;26025;-61
2021/01/08 09:41:35;;;;;;;30.13;11.60;;;;;;;1.06;81.31;99928.17;120458;1147;22938;-60
2021/01/08 09:44:07;;;;;;;33.27;11.50;;;;;;;1.11;81.09;99937.91;120364;1147;22938;-59
2021/01/08 09:46:53;;;;;;;27.17;11.20;;;;;;;1.13;80.48;99930.80;120680;1147;22948;-60
2021/01/08 09:49:24;;;;;;;30.67;11.30;;;;;;;1.17;80.87;99931.50;120354;1147;22919;-60
2021/01/08 09:52:04;;;;;;;23.90;9.30;;;;;;;1.21;80.79;99923.17;120746;1147;26499;-60
2021/01/08 09:54:45;;;;;;;24.30;8.23;;;;;;;1.23;80.21;99921.55;120394;1147;22977;-60
2021/01/08 09:57:29;;;;;;;29.50;11.13;;;;;;;1.27;80.31;99916.75;120391;1148;22941;-60
2021/01/08 10:00:00;;;;;;;27.73;9.07;;;;;;;1.30;80.32;99921.42;120443;1147;26354;-61
2021/01/08 10:02:39;;;;;;;28.70;9.83;;;;;;;1.34;80.43;99924.87;120318;1147;26108;-62
2021/01/08 10:05:25;;;;;;;24.35;8.50;;;;;;;1.34;79.83;99918.59;120199;1148;23380;-60
2021/01/08 10:07:57;;;;;;;25.70;9.57;;;;;;;1.37;80.10;99915.76;120502;1147;27251;-62
2021/01/08 10:10:44;;;;;;;25.90;8.70;;;;;;;1.38;79.68;99917.33;120202;1148;22950;-60
2021/01/08 10:13:20;;;;;;;24.45;7.65;;;;;;;1.42;79.80;99911.74;120384;1147;26395;-61
2021/01/08 10:15:52;;;;;;;21.27;7.90;;;;;;;1.46;79.71;99912.44;120248;1147;22999;-61
2021/01/08 10:18:27;;;;;;;22.27;7.53;;;;;;;1.49;79.33;99915.10;120945;1147;26031;-60
2021/01/08 10:21:03;;;;;;;26.55;7.55;;;;;;;1.52;80.14;99916.23;120214;1147;23047;-60
2021/01/08 10:23:40;;;;;;;22.80;7.40;;;;;;;1.56;79.88;99919.69;121242;1147;28410;-61
2021/01/08 10:26:14;;;;;;;21.77;6.70;;;;;;;1.59;79.25;99914.09;119986;1147;22958;-60
2021/01/08 10:28:50;;;;;;;21.77;6.33;;;;;;;1.62;79.55;99910.51;120508;1147;23029;-62
2021/01/08 10:31:21;;;;;;;18.27;6.17;;;;;;;1.60;79.38;99906.62;120071;1148;22951;-62
2021/01/08 10:33:52;;;;;;;23.57;7.57;;;;;;;1.60;79.10;99914.88;120319;1147;22952;-63
2021/01/08 10:36:23;;;;;;;21.95;7.05;;;;;;;1.60;78.81;99914.88;120209;1148;22930;-62
2021/01/08 10:38:53;;;;;;;20.48;6.83;;;;;;;1.60;79.53;99926.66;120734;1147;22879;-62
2021/01/08 10:41:23;;;;;;;24.72;8.45;;;;;;;1.60;79.08;99917.63;120415;1147;23054;-61
2021/01/08 10:43:55;;;;;;;26.17;8.50;;;;;;;1.62;79.22;99917.98;120194;1148;22930;-61
2021/01/08 10:46:25;;;;;;;26.50;8.63;;;;;;;1.65;79.20;99912.39;120220;1147;27149;-61
2021/01/08 10:48:55;;;;;;;;;;;;;;;1.68;78.96;99902.52;120399;1147;22911;-61
2021/01/08 10:51:29;;;;;;;26.55;10.35;;;;;;;1.70;79.23;99904.86;120257;1148;21566;-60
2021/01/08 10:53:59;;;;;;;28.00;10.47;;;;;;;1.69;78.99;99906.83;120599;1147;22918;-61
2021/01/08 10:56:29;;;;;;;;;;;;;;;1.68;78.59;99897.01;120823;1147;23078;-62
2021/01/08 10:58:59;;;;;;;30.77;10.53;;;;;;;1.67;78.63;99900.98;120414;1148;21563;-60
2021/01/08 11:01:39;;;;;;;29.43;10.60;;;;;;;1.67;79.00;99898.23;120194;1147;22949;-61
2021/01/08 11:04:10;;;;;;;34.50;12.07;;;;;;;1.64;78.49;99901.81;120172;1148;22977;-61
2021/01/08 11:06:41;;;;;;;36.57;14.37;;;;;;;1.63;78.69;99897.53;120535;1148;23009;-62
2021/01/08 11:09:11;;;;;;;33.47;11.83;;;;;;;1.61;79.06;99897.19;120283;1147;22928;-62
2021/01/08 11:11:41;;;;;;;33.88;12.47;;;;;;;1.59;78.99;99899.59;120263;1147;22927;-61
2021/01/08 11:14:11;;;;;;;30.37;11.12;;;;;;;1.59;78.95;99899.59;120151;1148;22924;-63
2021/01/08 11:16:42;;;;;;;32.25;11.28;;;;;;;1.58;79.10;99898.02;120503;1147;22946;-60
2021/01/08 11:19:12;;;;;;;32.28;12.10;;;;;;;1.57;79.12;99888.23;120136;1148;22944;-61
2021/01/08 11:21:43;;;;;;;31.10;11.90;;;;;;;1.57;79.22;99893.73;120169;1148;23087;-62
2021/01/08 11:24:13;;;;;;;32.75;12.75;;;;;;;1.58;79.22;99893.30;120112;1147;22951;-61
2021/01/08 11:26:43;;;;;;;33.93;12.17;;;;;;;1.59;78.97;99894.09;120340;1148;23028;-62
2021/01/08 11:29:14;;;;;;;31.60;12.40;;;;;;;1.57;78.82;99894.48;120305;1147;23138;-61
2021/01/08 11:31:44;;;;;;;31.07;11.10;;;;;;;1.57;78.64;99893.73;120523;1148;24701;-60
2021/01/08 11:34:16;;;;;;;32.53;11.15;;;;;;;1.57;78.97;99890.98;120251;1147;22969;-62
2021/01/08 11:36:46;;;;;;;30.93;10.97;;;;;;;1.59;78.97;99883.08;120540;1148;28937;-63
2021/01/08 11:39:16;;;;;;;;;;;;;;;1.61;79.57;99892.44;120339;1148;22944;-61
2021/01/08 11:41:46;;;;;;;31.60;11.63;;;;;;;1.67;79.29;99886.44;120219;1148;26317;-62
2021/01/08 11:44:17;;;;;;;33.10;12.05;;;;;;;1.71;79.58;99896.17;120125;1147;23022;-62